KMHT/MHT METAR and TAF weather

Enter ICAO airport designator
Station Type Date Time Source
KMHT METAR 2020/12/05 04:53 UTC NOAA

KMHT 050453Z 00000KT 10SM BKN130 OVC200 06/M01 A2988 RMK AO2 SLP133 T00561006 401280000


Station Type Date Time Source
KMHT Decoded METAR 2020/12/05 04:53 UTC NOAA

MANCHESTER AIRPORT, NH, United States (KMHT) 42-56N 071-26W 81M
Dec 04, 2020 - 11:53 PM EST / 2020.12.05 0453 UTC
Wind: Calm:0
Visibility: 10 mile(s):0
Sky conditions: overcast
Temperature: 42.1 F (5.6 C)
Dew Point: 30.9 F (-0.6 C)
Relative Humidity: 64%
Pressure (altimeter): 29.88 in. Hg (1011 hPa)
ob: KMHT 050453Z 00000KT 10SM BKN130 OVC200 06/M01 A2988 RMK AO2 SLP133 T00561006 401280000
cycle: 5

Station Type Date Time Source
KMHT TAF 2020/12/04 18:22 UTC NOAA

TAF KMHT 041720Z 0418/0518 20009KT P6SM BKN090 BKN250
FM050400 19004KT 5SM BR OVC025
FM051200 01005KT 4SM -RA BR OVC015
FM051300 36008KT 1/2SM -RA FG OVC007

Example: see airport list